createdAt,value
2018-07-10T00:02:26.184Z,5.03
2018-07-10T00:07:14.763Z,5.30
2018-07-10T00:11:56.766Z,4.73
2018-07-10T00:14:25.799Z,4.33
2018-07-10T00:16:54.787Z,3.67
2018-07-10T00:19:23.791Z,6.73
2018-07-10T00:21:52.805Z,6.87
2018-07-10T00:24:21.904Z,4.70
2018-07-10T00:26:50.960Z,3.63
2018-07-10T00:29:19.973Z,5.27
2018-07-10T00:31:48.989Z,5.80
2018-07-10T00:34:18.042Z,4.57
2018-07-10T00:36:47.050Z,4.70
2018-07-10T00:39:16.185Z,4.57
2018-07-10T00:41:45.166Z,4.50
2018-07-10T00:44:14.226Z,4.60
2018-07-10T00:46:43.178Z,4.30
2018-07-10T00:49:12.218Z,3.97
2018-07-10T00:51:41.696Z,5.23
2018-07-10T00:54:10.737Z,4.27
2018-07-10T00:56:39.788Z,4.57
2018-07-10T00:59:08.821Z,4.90
2018-07-10T01:01:37.916Z,4.67
2018-07-10T01:04:06.961Z,6.23
2018-07-10T01:06:35.989Z,5.87
2018-07-10T01:09:05.213Z,5.20
2018-07-10T01:11:34.345Z,4.97
2018-07-10T01:14:03.377Z,5.43
2018-07-10T01:16:35.103Z,3.77
2018-07-10T01:19:19.929Z,6.53
2018-07-10T01:21:48.993Z,5.80
2018-07-10T01:24:18.484Z,3.70
2018-07-10T01:26:49.220Z,3.77
2018-07-10T01:29:24.329Z,4.90
2018-07-10T01:31:54.833Z,5.93
2018-07-10T01:34:24.308Z,4.97
2018-07-10T01:36:53.938Z,4.80
2018-07-10T01:39:22.970Z,2.77
2018-07-10T01:41:52.057Z,6.37
2018-07-10T01:44:21.335Z,6.80
2018-07-10T01:46:50.303Z,3.83
2018-07-10T01:49:19.359Z,5.37
2018-07-10T01:51:48.408Z,7.17
2018-07-10T01:54:17.465Z,3.37
2018-07-10T01:56:46.563Z,4.33
2018-07-10T01:59:16.262Z,4.63
2018-07-10T02:01:45.301Z,4.13
2018-07-10T02:04:14.337Z,6.43
2018-07-10T02:06:43.341Z,6.13
2018-07-10T02:09:12.393Z,4.23
2018-07-10T02:11:41.397Z,4.77
2018-07-10T02:14:10.551Z,3.33
2018-07-10T02:16:39.598Z,5.33
2018-07-10T02:19:08.641Z,6.80
2018-07-10T02:21:38.052Z,4.50
2018-07-10T02:24:07.180Z,4.03
2018-07-10T02:26:36.188Z,4.07
2018-07-10T02:29:04.822Z,5.83
2018-07-10T02:31:33.755Z,4.67
2018-07-10T02:34:02.764Z,3.67
2018-07-10T02:36:31.825Z,5.77
2018-07-10T02:39:00.902Z,3.73
2018-07-10T02:41:29.940Z,7.33
2018-07-10T02:44:01.940Z,7.83
2018-07-10T02:46:32.889Z,5.50
2018-07-10T02:49:05.555Z,7.43
2018-07-10T02:51:35.860Z,7.57
2018-07-10T02:54:04.941Z,5.40
2018-07-10T02:56:33.962Z,5.97
2018-07-10T02:59:04.148Z,5.93
2018-07-10T03:01:33.191Z,5.80
2018-07-10T03:04:02.209Z,7.30
2018-07-10T03:06:33.520Z,8.57
2018-07-10T03:09:04.756Z,8.00
2018-07-10T03:13:54.950Z,8.20
2018-07-10T03:16:24.119Z,4.90
2018-07-10T03:18:53.180Z,4.83
2018-07-10T03:21:22.262Z,6.17
2018-07-10T03:23:51.318Z,4.73
2018-07-10T03:26:20.377Z,4.37
2018-07-10T03:28:49.942Z,5.00
2018-07-10T03:31:18.990Z,7.33
2018-07-10T03:33:47.988Z,4.47
2018-07-10T03:36:17.181Z,4.53
2018-07-10T03:38:46.214Z,5.53
2018-07-10T03:41:15.246Z,4.87
2018-07-10T03:43:44.317Z,4.30
2018-07-10T03:46:13.418Z,5.23
2018-07-10T03:48:42.519Z,4.50
2018-07-10T03:51:12.204Z,4.60
2018-07-10T03:53:40.973Z,6.10
2018-07-10T03:56:10.394Z,2.93
2018-07-10T03:58:39.359Z,4.90
2018-07-10T04:01:08.401Z,3.93
2018-07-10T04:03:37.506Z,4.07
2018-07-10T04:06:07.290Z,5.53
2018-07-10T04:08:37.221Z,5.30
2018-07-10T04:11:06.186Z,4.67
2018-07-10T04:13:36.462Z,4.27
2018-07-10T04:16:05.547Z,6.07
2018-07-10T04:18:35.682Z,3.90
2018-07-10T04:21:19.127Z,4.33
2018-07-10T04:23:50.535Z,5.23
2018-07-10T04:26:21.313Z,3.20
2018-07-10T04:29:04.718Z,5.40
2018-07-10T04:31:37.502Z,3.10
2018-07-10T04:34:07.147Z,3.93
2018-07-10T04:36:36.538Z,4.13
2018-07-10T04:39:05.569Z,4.93
2018-07-10T04:41:36.545Z,5.37
2018-07-10T04:44:13.183Z,6.37
2018-07-10T04:46:44.769Z,7.70
2018-07-10T04:49:36.999Z,4.93
2018-07-10T04:52:16.565Z,4.20
2018-07-10T04:54:51.892Z,4.07
2018-07-10T04:57:25.621Z,2.20
2018-07-10T04:59:54.685Z,4.23
2018-07-10T05:02:24.495Z,2.60
2018-07-10T05:04:54.515Z,3.33
2018-07-10T05:07:23.597Z,3.30
2018-07-10T05:09:52.597Z,3.13
2018-07-10T05:12:21.621Z,5.10
2018-07-10T05:14:51.207Z,4.07
2018-07-10T05:17:20.381Z,3.33
2018-07-10T05:19:49.513Z,4.40
2018-07-10T05:22:18.527Z,3.83
2018-07-10T05:24:47.559Z,2.13
2018-07-10T05:27:16.729Z,3.80
2018-07-10T05:29:45.794Z,4.60
2018-07-10T05:32:14.855Z,2.97
2018-07-10T05:34:43.941Z,6.77
2018-07-10T05:37:18.099Z,4.47
2018-07-10T05:39:47.128Z,4.87
2018-07-10T05:42:16.161Z,8.20
2018-07-10T05:44:45.997Z,3.47
2018-07-10T05:47:15.069Z,3.33
2018-07-10T05:49:44.099Z,3.40
2018-07-10T05:52:13.144Z,4.93
2018-07-10T05:54:44.405Z,2.77
2018-07-10T05:57:13.449Z,2.13
2018-07-10T05:59:42.495Z,5.13
2018-07-10T06:02:11.497Z,2.90
2018-07-10T06:04:40.556Z,2.37
2018-07-10T06:07:09.573Z,5.87
2018-07-10T06:09:38.617Z,2.80
2018-07-10T06:12:07.703Z,3.37
2018-07-10T06:14:36.720Z,4.27
2018-07-10T06:17:06.185Z,4.40
2018-07-10T06:19:35.370Z,4.30
2018-07-10T06:22:04.369Z,4.03
2018-07-10T06:24:33.475Z,6.03
2018-07-10T06:27:06.697Z,2.37
2018-07-10T06:29:44.768Z,2.97
2018-07-10T06:32:20.114Z,5.63
2018-07-10T06:34:50.609Z,3.33
2018-07-10T06:37:25.171Z,4.07
2018-07-10T06:39:54.203Z,4.13
2018-07-10T06:42:32.260Z,4.00
2018-07-10T06:45:03.675Z,4.00
2018-07-10T06:47:49.213Z,5.60
2018-07-10T06:50:20.925Z,5.30
2018-07-10T06:52:52.341Z,10.20
2018-07-10T06:55:21.786Z,3.17
2018-07-10T06:57:52.892Z,5.47
2018-07-10T07:00:21.908Z,4.53
2018-07-10T07:02:50.936Z,5.30
2018-07-10T07:05:20.094Z,3.90
2018-07-10T07:07:49.132Z,5.77
2018-07-10T07:10:18.252Z,3.73
2018-07-10T07:12:47.589Z,4.70
2018-07-10T07:15:20.567Z,3.03
2018-07-10T07:17:51.975Z,4.30
2018-07-10T07:20:22.258Z,2.27
2018-07-10T07:22:51.816Z,3.90
2018-07-10T07:25:20.812Z,6.10
2018-07-10T07:27:49.886Z,5.80
2018-07-10T07:30:18.909Z,5.97
2018-07-10T07:32:48.731Z,5.23
2018-07-10T07:35:17.804Z,4.00
2018-07-10T07:37:47.073Z,5.53
2018-07-10T07:40:16.049Z,5.27
2018-07-10T07:42:45.037Z,6.50
2018-07-10T07:45:14.066Z,4.17
2018-07-10T07:47:43.488Z,3.90
2018-07-10T07:50:12.522Z,3.77
2018-07-10T07:52:41.612Z,4.17
2018-07-10T07:55:10.672Z,3.27
2018-07-10T07:57:39.676Z,4.13
2018-07-10T08:00:08.378Z,4.70
2018-07-10T08:02:37.289Z,6.80
2018-07-10T08:05:06.331Z,7.53
2018-07-10T08:07:35.425Z,5.23
2018-07-10T08:10:04.472Z,6.97
2018-07-10T08:12:33.514Z,5.87
2018-07-10T08:15:03.237Z,8.00
2018-07-10T08:17:35.289Z,6.00
2018-07-10T08:20:05.254Z,4.07
2018-07-10T08:22:34.298Z,5.43
2018-07-10T08:25:03.977Z,7.63
2018-07-10T08:27:33.769Z,5.17
2018-07-10T08:30:02.841Z,5.63
2018-07-10T08:32:32.038Z,6.97
2018-07-10T08:35:01.139Z,7.83
2018-07-10T08:37:30.145Z,4.27
2018-07-10T08:39:59.193Z,3.37
2018-07-10T08:42:28.575Z,7.87
2018-07-10T08:44:57.599Z,6.37
2018-07-10T08:47:26.681Z,5.57
2018-07-10T08:49:56.135Z,6.30
2018-07-10T08:52:25.227Z,5.97
2018-07-10T08:54:54.245Z,4.13
2018-07-10T08:57:23.282Z,6.17
2018-07-10T08:59:53.392Z,6.43
2018-07-10T09:02:22.369Z,4.03
2018-07-10T09:04:51.403Z,7.10
2018-07-10T09:07:20.421Z,3.63
2018-07-10T09:09:49.475Z,4.17
2018-07-10T09:12:18.489Z,3.97
2018-07-10T09:14:47.604Z,6.40
2018-07-10T09:17:16.619Z,2.63
2018-07-10T09:19:45.671Z,4.47
2018-07-10T09:22:14.689Z,5.73
2018-07-10T09:24:48.316Z,4.17
2018-07-10T09:27:20.922Z,4.70
2018-07-10T09:29:50.353Z,5.73
2018-07-10T09:32:25.292Z,5.63
2018-07-10T09:34:55.862Z,3.13
2018-07-10T09:37:30.357Z,6.47
2018-07-10T09:40:31.515Z,7.93
2018-07-10T09:43:03.240Z,10.07
2018-07-10T09:45:33.134Z,8.83
2018-07-10T09:48:03.085Z,6.70
2018-07-10T09:50:32.145Z,4.97
2018-07-10T09:53:02.065Z,5.77
2018-07-10T09:55:31.297Z,6.57
2018-07-10T09:58:00.858Z,8.47
2018-07-10T10:00:35.854Z,7.60
2018-07-10T10:03:04.972Z,8.33
2018-07-10T10:05:42.210Z,5.13
2018-07-10T10:08:11.592Z,4.90
2018-07-10T10:10:41.536Z,5.27
2018-07-10T10:13:10.584Z,6.13
2018-07-10T10:15:39.577Z,5.53
2018-07-10T10:18:09.506Z,7.67
2018-07-10T10:20:39.690Z,5.17
2018-07-10T10:23:10.594Z,5.80
2018-07-10T10:25:42.028Z,3.80
2018-07-10T10:28:11.102Z,6.33
2018-07-10T10:30:40.751Z,6.73
2018-07-10T10:33:10.452Z,9.87
2018-07-10T10:35:39.708Z,8.27
2018-07-10T10:38:08.698Z,6.90
2018-07-10T10:40:39.177Z,5.87
2018-07-10T10:43:10.086Z,6.63
2018-07-10T10:45:40.850Z,5.67
2018-07-10T10:48:10.213Z,5.83
2018-07-10T10:50:42.103Z,5.63
2018-07-10T10:53:11.095Z,8.53
2018-07-10T10:55:40.106Z,7.60
2018-07-10T10:58:09.325Z,7.23
2018-07-10T11:00:38.899Z,5.40
2018-07-10T11:03:07.954Z,4.20
2018-07-10T11:05:37.593Z,6.93
2018-07-10T11:08:06.677Z,6.67
2018-07-10T11:10:36.014Z,3.53
2018-07-10T11:13:05.445Z,3.47
2018-07-10T11:15:39.942Z,4.90
2018-07-10T11:18:11.102Z,2.70
2018-07-10T11:21:02.255Z,7.97
2018-07-10T11:23:42.025Z,7.53
2018-07-10T11:26:12.727Z,6.47
2018-07-10T11:28:41.756Z,6.57
2018-07-10T11:31:10.790Z,5.03
2018-07-10T11:33:39.807Z,6.50
2018-07-10T11:36:09.250Z,8.00
2018-07-10T11:38:38.456Z,6.10
2018-07-10T11:41:07.502Z,4.53
2018-07-10T11:43:36.513Z,5.13
2018-07-10T11:46:05.682Z,8.23
2018-07-10T11:48:34.785Z,7.33
2018-07-10T11:51:03.809Z,7.77
2018-07-10T11:53:33.006Z,7.07
2018-07-10T11:56:02.021Z,6.43
2018-07-10T11:58:31.041Z,5.47
2018-07-10T12:01:00.100Z,4.70
2018-07-10T12:03:39.829Z,6.13
2018-07-10T12:06:09.560Z,8.53
2018-07-10T12:08:38.623Z,8.03
2018-07-10T12:11:15.930Z,4.83
2018-07-10T12:13:45.293Z,4.87
2018-07-10T12:16:14.717Z,6.63
2018-07-10T12:18:43.783Z,6.17
2018-07-10T12:21:14.633Z,6.57
2018-07-10T12:23:43.979Z,6.20
2018-07-10T12:26:13.114Z,4.97
2018-07-10T12:28:42.157Z,6.50
2018-07-10T12:31:11.233Z,4.70
2018-07-10T12:33:40.221Z,7.10
2018-07-10T12:36:08.904Z,8.77
2018-07-10T12:38:37.827Z,5.63
2018-07-10T12:41:06.895Z,3.67
2018-07-10T12:43:35.892Z,4.50
2018-07-10T12:46:04.905Z,7.67
2018-07-10T12:48:33.941Z,6.80
2018-07-10T12:51:03.201Z,6.37
2018-07-10T12:53:32.252Z,5.27
2018-07-10T12:56:01.624Z,6.00
2018-07-10T12:58:31.815Z,7.20
2018-07-10T13:01:00.887Z,7.00
2018-07-10T13:03:29.831Z,6.63
2018-07-10T13:05:59.422Z,5.53
2018-07-10T13:08:28.417Z,10.70
2018-07-10T13:10:57.437Z,5.30
2018-07-10T13:13:26.477Z,5.60
2018-07-10T13:15:55.175Z,10.33
2018-07-10T13:18:27.780Z,5.33
2018-07-10T13:20:56.797Z,6.57
2018-07-10T13:23:25.941Z,6.53
2018-07-10T13:25:54.947Z,7.77
2018-07-10T13:28:23.974Z,3.40
2018-07-10T13:30:52.989Z,7.80
2018-07-10T13:33:22.035Z,5.03
2018-07-10T13:35:51.047Z,5.30
2018-07-10T13:38:21.263Z,7.27
2018-07-10T13:40:51.237Z,6.23
2018-07-10T13:43:20.021Z,6.13
2018-07-10T13:45:48.911Z,4.13
2018-07-10T13:48:17.954Z,5.10
2018-07-10T13:50:47.055Z,6.23
2018-07-10T13:53:16.065Z,6.17
2018-07-10T13:55:45.110Z,5.40
2018-07-10T13:58:16.859Z,8.33
2018-07-10T14:00:48.129Z,5.17
2018-07-10T14:03:17.137Z,5.60
2018-07-10T14:05:46.141Z,5.87
2018-07-10T14:08:15.129Z,7.03
2018-07-10T14:10:44.183Z,9.00
2018-07-10T14:13:13.198Z,11.17
2018-07-10T14:15:42.176Z,11.60
2018-07-10T14:18:11.557Z,9.97
2018-07-10T14:20:46.861Z,8.27
2018-07-10T14:23:15.949Z,9.87
2018-07-10T14:25:44.927Z,11.63
2018-07-10T14:28:14.155Z,11.87
2018-07-10T14:30:43.169Z,12.50
2018-07-10T14:33:12.209Z,10.73
2018-07-10T14:35:41.222Z,12.07
2018-07-10T14:38:11.813Z,10.97
2018-07-10T14:40:44.589Z,15.30
2018-07-10T14:43:17.275Z,13.97
2018-07-10T14:45:46.288Z,15.33
2018-07-10T14:48:15.972Z,15.60
2018-07-10T14:50:45.099Z,14.30
2018-07-10T14:53:14.108Z,16.67
2018-07-10T14:55:43.112Z,19.90
2018-07-10T14:58:12.124Z,19.93
2018-07-10T15:00:41.190Z,15.37
2018-07-10T15:03:10.200Z,17.73
2018-07-10T15:05:39.166Z,21.30
2018-07-10T15:08:08.206Z,16.00
2018-07-10T15:10:37.341Z,22.17
2018-07-10T15:13:06.389Z,15.50
2018-07-10T15:15:35.380Z,16.57
2018-07-10T15:18:09.799Z,12.80
2018-07-10T15:20:38.840Z,17.10
2018-07-10T15:23:07.855Z,13.87
2018-07-10T15:25:36.885Z,17.00
2018-07-10T15:28:06.025Z,15.87
2018-07-10T15:30:35.062Z,21.63
2018-07-10T15:33:04.097Z,18.93
2018-07-10T15:35:33.081Z,14.83
2018-07-10T15:38:02.275Z,15.50
2018-07-10T15:40:31.285Z,17.50
2018-07-10T15:43:00.357Z,18.40
2018-07-10T15:45:29.333Z,17.87
2018-07-10T15:48:02.081Z,17.47
2018-07-10T15:50:31.161Z,15.93
2018-07-10T15:53:00.239Z,17.70
2018-07-10T15:55:29.365Z,17.23
2018-07-10T15:57:58.392Z,13.80
2018-07-10T16:00:27.430Z,18.47
2018-07-10T16:02:56.745Z,19.73
2018-07-10T16:05:25.806Z,17.77
2018-07-10T16:08:02.908Z,24.53
2018-07-10T16:10:31.959Z,19.30
2018-07-10T16:13:01.115Z,19.93
2018-07-10T16:15:30.332Z,29.30
2018-07-10T16:17:59.452Z,22.43
2018-07-10T16:20:28.462Z,27.53
2018-07-10T16:22:57.768Z,27.67
2018-07-10T16:25:29.734Z,19.20
2018-07-10T16:27:59.652Z,25.20
2018-07-10T16:30:28.793Z,24.83
2018-07-10T16:32:57.822Z,27.10
2018-07-10T16:35:29.012Z,22.27
2018-07-10T16:38:00.544Z,20.30
2018-07-10T16:40:29.580Z,25.50
2018-07-10T16:42:58.994Z,23.57
2018-07-10T16:45:31.079Z,25.43
2018-07-10T16:48:13.496Z,25.20
2018-07-10T16:50:45.424Z,29.03
2018-07-10T16:53:16.794Z,27.30
2018-07-10T16:55:45.864Z,27.10
2018-07-10T16:58:15.548Z,26.13
2018-07-10T17:00:44.564Z,26.00
2018-07-10T17:03:13.626Z,24.63
2018-07-10T17:05:42.684Z,26.53
2018-07-10T17:08:11.744Z,26.37
2018-07-10T17:10:40.870Z,26.80
2018-07-10T17:13:09.966Z,28.53
2018-07-10T17:15:39.020Z,24.47
2018-07-10T17:18:08.020Z,29.13
2018-07-10T17:20:37.052Z,31.77
2018-07-10T17:23:06.216Z,27.83
2018-07-10T17:25:35.278Z,29.20
2018-07-10T17:28:04.388Z,28.13
2018-07-10T17:30:33.394Z,22.47
2018-07-10T17:33:02.506Z,27.60
2018-07-10T17:35:31.559Z,27.30
2018-07-10T17:38:00.662Z,24.07
2018-07-10T17:40:29.742Z,30.17
2018-07-10T17:42:58.452Z,27.13
2018-07-10T17:45:27.402Z,24.63
2018-07-10T17:47:56.411Z,35.60
2018-07-10T17:50:25.466Z,27.43
2018-07-10T17:52:54.494Z,29.87
2018-07-10T17:55:23.713Z,29.00
2018-07-10T17:57:58.473Z,25.33
2018-07-10T18:00:27.501Z,23.87
2018-07-10T18:02:56.537Z,22.23
2018-07-10T18:05:25.681Z,22.10
2018-07-10T18:07:54.727Z,22.33
2018-07-10T18:10:23.938Z,23.47
2018-07-10T18:12:53.797Z,25.00
2018-07-10T18:15:22.969Z,21.13
2018-07-10T18:17:52.945Z,20.33
2018-07-10T18:20:22.050Z,21.50
2018-07-10T18:22:51.513Z,23.13
2018-07-10T18:25:20.544Z,21.80
2018-07-10T18:27:49.549Z,22.30
2018-07-10T18:30:18.537Z,25.07
2018-07-10T18:32:47.565Z,20.83
2018-07-10T18:35:16.639Z,24.50
2018-07-10T18:37:45.657Z,21.60
2018-07-10T18:40:14.879Z,23.67
2018-07-10T18:42:43.975Z,25.60
2018-07-10T18:45:13.077Z,23.50
2018-07-10T18:47:42.747Z,28.47
2018-07-10T18:50:11.911Z,28.23
2018-07-10T18:52:41.005Z,27.47
2018-07-10T18:55:10.044Z,29.03
2018-07-10T18:58:48.032Z,28.33
2018-07-10T19:01:23.665Z,26.27
2018-07-10T19:03:52.727Z,37.47
2018-07-10T19:06:22.645Z,29.73
2018-07-10T19:08:51.938Z,27.07
2018-07-10T19:11:24.633Z,29.63
2018-07-10T19:13:53.747Z,29.57
2018-07-10T19:16:23.584Z,31.80
2018-07-10T19:18:53.441Z,29.47
2018-07-10T19:21:27.887Z,33.27
2018-07-10T19:24:00.570Z,33.77
2018-07-10T19:26:30.126Z,30.80
2018-07-10T19:29:06.354Z,28.57
2018-07-10T19:31:36.109Z,30.23
2018-07-10T19:34:05.365Z,29.23
2018-07-10T19:36:34.448Z,37.43
2018-07-10T19:39:05.763Z,29.97
2018-07-10T19:41:34.774Z,27.23
2018-07-10T19:44:06.987Z,33.80
2018-07-10T19:46:36.665Z,30.03
2018-07-10T19:49:06.526Z,29.20
2018-07-10T19:51:35.584Z,42.40
2018-07-10T19:54:09.360Z,33.23
2018-07-10T19:56:39.089Z,37.77
2018-07-10T19:59:09.316Z,31.07
2018-07-10T20:01:44.410Z,33.53
2018-07-10T20:04:20.601Z,31.77
2018-07-10T20:06:58.587Z,33.70
2018-07-10T20:09:31.452Z,31.63
2018-07-10T20:12:19.304Z,35.73
2018-07-10T20:14:54.133Z,33.67
2018-07-10T20:17:25.602Z,34.93
2018-07-10T20:19:59.562Z,30.00
2018-07-10T20:22:35.179Z,37.90
2018-07-10T20:25:07.131Z,31.27
2018-07-10T20:29:12.817Z,30.43
2018-07-10T20:31:47.382Z,35.03
2018-07-10T20:34:24.011Z,32.67
2018-07-10T20:36:54.440Z,33.30
2018-07-10T20:39:32.754Z,31.87
2018-07-10T20:42:03.155Z,38.63
2018-07-10T20:44:35.709Z,32.87
2018-07-10T20:47:04.932Z,43.87
2018-07-10T20:49:52.520Z,35.47
2018-07-10T20:53:37.470Z,34.07
2018-07-10T20:56:13.678Z,30.10
2018-07-10T20:58:50.921Z,39.80
2018-07-10T21:01:19.931Z,34.37
2018-07-10T21:03:52.628Z,36.33
2018-07-10T21:06:57.289Z,35.80
2018-07-10T21:09:39.426Z,39.03
2018-07-10T21:12:14.016Z,35.67
2018-07-10T21:15:00.103Z,39.27
2018-07-10T21:17:51.112Z,33.87
2018-07-10T21:21:28.326Z,32.80
2018-07-10T21:24:04.634Z,35.20
2018-07-10T21:26:44.764Z,35.50
2018-07-10T21:30:02.462Z,38.13
2018-07-10T21:32:38.977Z,33.57
2018-07-10T21:35:09.022Z,39.33
2018-07-10T21:38:50.231Z,39.93
2018-07-10T21:41:32.726Z,33.10
2018-07-10T21:46:19.219Z,33.97
2018-07-10T21:49:58.458Z,36.17
2018-07-10T21:52:27.596Z,36.13
2018-07-10T21:54:56.586Z,36.13
2018-07-10T21:57:32.854Z,40.73
2018-07-10T22:00:02.874Z,35.77
2018-07-10T22:02:31.838Z,36.67
2018-07-10T22:05:00.903Z,36.80
2018-07-10T22:07:30.281Z,31.57
2018-07-10T22:10:02.005Z,34.63
2018-07-10T22:12:31.049Z,32.40
2018-07-10T22:15:00.137Z,32.27
2018-07-10T22:17:29.192Z,31.17
2018-07-10T22:19:58.691Z,36.67
2018-07-10T22:22:30.048Z,38.73
2018-07-10T22:25:08.586Z,32.83
2018-07-10T22:27:40.197Z,29.73
2018-07-10T22:30:15.212Z,26.33
2018-07-10T22:32:49.588Z,34.53
2018-07-10T22:35:18.600Z,34.87
2018-07-10T22:37:47.650Z,37.50
2018-07-10T22:40:18.110Z,29.83
2018-07-10T22:42:48.384Z,28.30
2018-07-10T22:45:18.432Z,30.37
2018-07-10T22:47:47.456Z,31.30
2018-07-10T22:50:19.458Z,29.43
2018-07-10T22:52:56.643Z,28.63
2018-07-10T22:55:29.019Z,29.37
2018-07-10T22:58:04.124Z,32.07
2018-07-10T23:00:40.081Z,32.07
2018-07-10T23:03:19.710Z,32.53
2018-07-10T23:05:50.513Z,34.07
2018-07-10T23:08:35.684Z,35.37
2018-07-10T23:11:06.901Z,32.43
2018-07-10T23:13:41.892Z,36.20
2018-07-10T23:16:10.911Z,39.03
2018-07-10T23:18:41.037Z,30.20
2018-07-10T23:21:12.435Z,32.90
2018-07-10T23:23:41.545Z,30.67
2018-07-10T23:26:12.985Z,39.17
2018-07-10T23:28:42.217Z,31.00
2018-07-10T23:31:13.381Z,28.13
2018-07-10T23:33:44.532Z,34.37
2018-07-10T23:36:14.241Z,38.70
2018-07-10T23:38:55.360Z,40.83
2018-07-10T23:41:38.188Z,29.50
2018-07-10T23:44:09.111Z,30.67
2018-07-10T23:46:44.446Z,38.20
2018-07-10T23:49:14.550Z,32.03
2018-07-10T23:51:55.082Z,32.83
2018-07-10T23:54:24.124Z,34.77
2018-07-10T23:56:53.205Z,30.43
2018-07-10T23:59:22.480Z,31.20
